createdAt,value
2017-08-03T00:01:58.606Z,19.07
2017-08-03T00:04:24.981Z,20.30
2017-08-03T00:06:51.420Z,20.63
2017-08-03T00:09:17.777Z,23.07
2017-08-03T00:11:44.141Z,21.53
2017-08-03T00:14:11.373Z,22.63
2017-08-03T00:16:37.725Z,21.63
2017-08-03T00:19:04.033Z,18.80
2017-08-03T00:21:30.344Z,21.00
2017-08-03T00:23:56.788Z,24.13
2017-08-03T00:26:23.124Z,21.63
2017-08-03T00:28:49.426Z,22.93
2017-08-03T00:31:16.489Z,21.17
2017-08-03T00:33:42.827Z,20.00
2017-08-03T00:36:09.135Z,23.73
2017-08-03T00:38:36.243Z,24.23
2017-08-03T00:41:03.058Z,24.83
2017-08-03T00:43:29.404Z,23.83
2017-08-03T00:45:55.805Z,22.83
2017-08-03T00:48:22.870Z,23.17
2017-08-03T00:50:51.024Z,27.80
2017-08-03T00:53:17.339Z,22.63
2017-08-03T00:55:43.724Z,22.00
2017-08-03T00:58:10.039Z,25.47
2017-08-03T01:00:36.332Z,28.77
2017-08-03T01:03:02.677Z,26.97
2017-08-03T01:05:28.995Z,25.83
2017-08-03T01:07:55.572Z,27.87
2017-08-03T01:10:22.659Z,32.40
2017-08-03T01:12:48.977Z,25.93
2017-08-03T01:15:15.457Z,29.07
2017-08-03T01:17:41.763Z,33.37
2017-08-03T01:20:08.852Z,29.70
2017-08-03T01:22:35.181Z,27.47
2017-08-03T01:25:01.565Z,27.43
2017-08-03T01:27:28.055Z,32.00
2017-08-03T01:29:54.446Z,25.80
2017-08-03T01:32:20.791Z,27.73
2017-08-03T01:34:47.129Z,28.47
2017-08-03T01:37:13.557Z,27.57
2017-08-03T01:39:39.892Z,29.67
2017-08-03T01:42:06.250Z,27.60
2017-08-03T01:44:32.614Z,26.33
2017-08-03T01:47:10.235Z,26.10
2017-08-03T01:49:37.632Z,27.70
2017-08-03T01:52:04.262Z,25.10
2017-08-03T01:54:31.050Z,24.50
2017-08-03T01:56:57.684Z,27.20
2017-08-03T01:59:24.380Z,23.93
2017-08-03T02:01:50.877Z,27.33
2017-08-03T02:04:17.452Z,29.23
2017-08-03T02:06:44.060Z,28.13
2017-08-03T02:09:10.694Z,26.00
2017-08-03T02:11:37.268Z,27.43
2017-08-03T02:14:03.861Z,29.27
2017-08-03T02:16:30.400Z,30.87
2017-08-03T02:18:57.124Z,23.43
2017-08-03T02:21:23.880Z,19.57
2017-08-03T02:23:50.521Z,26.80
2017-08-03T02:26:17.063Z,19.17
2017-08-03T02:28:44.355Z,22.60
2017-08-03T02:31:10.894Z,22.60
2017-08-03T02:33:37.432Z,22.70
2017-08-03T02:36:04.012Z,28.63
2017-08-03T02:38:30.565Z,21.27
2017-08-03T02:40:57.218Z,20.30
2017-08-03T02:43:23.740Z,23.17
2017-08-03T02:45:51.044Z,21.17
2017-08-03T02:48:17.508Z,21.20
2017-08-03T02:50:44.064Z,19.90
2017-08-03T02:53:11.407Z,23.37
2017-08-03T02:55:37.940Z,19.63
2017-08-03T02:58:05.122Z,18.50
2017-08-03T03:00:31.450Z,15.87
2017-08-03T03:02:57.766Z,23.77
2017-08-03T03:05:24.393Z,18.90
2017-08-03T03:07:51.514Z,15.77
2017-08-03T03:10:17.808Z,17.07
2017-08-03T03:12:44.099Z,17.30
2017-08-03T03:15:10.644Z,16.30
2017-08-03T03:17:37.199Z,16.57
2017-08-03T03:20:04.268Z,16.40
2017-08-03T03:22:30.860Z,16.90
2017-08-03T03:24:57.416Z,15.20
2017-08-03T03:27:23.963Z,18.43
2017-08-03T03:29:50.608Z,15.67
2017-08-03T03:32:17.180Z,20.27
2017-08-03T03:34:43.749Z,14.47
2017-08-03T03:37:10.338Z,14.73
2017-08-03T03:39:36.925Z,13.27
2017-08-03T03:42:03.489Z,14.77
2017-08-03T03:44:30.091Z,13.47
2017-08-03T03:46:56.708Z,15.40
2017-08-03T03:49:23.320Z,14.13
2017-08-03T03:51:49.953Z,15.13
2017-08-03T03:54:16.528Z,15.33
2017-08-03T03:56:43.810Z,17.10
2017-08-03T03:59:10.376Z,13.83
2017-08-03T04:01:36.945Z,14.20
2017-08-03T04:04:03.521Z,16.57
2017-08-03T04:06:30.061Z,16.40
2017-08-03T04:08:56.745Z,13.83
2017-08-03T04:11:24.265Z,15.50
2017-08-03T04:13:50.813Z,19.37
2017-08-03T04:16:17.501Z,13.10
2017-08-03T04:18:44.038Z,13.80
2017-08-03T04:21:10.588Z,13.37
2017-08-03T04:23:37.144Z,19.53
2017-08-03T04:26:03.729Z,13.47
2017-08-03T04:28:30.293Z,13.27
2017-08-03T04:30:56.948Z,13.00
2017-08-03T04:33:23.487Z,13.87
2017-08-03T04:35:50.092Z,14.10
2017-08-03T04:38:16.600Z,12.93
2017-08-03T04:40:43.143Z,14.80
2017-08-03T04:43:09.827Z,13.33
2017-08-03T04:45:36.380Z,15.80
2017-08-03T04:48:02.940Z,15.80
2017-08-03T04:50:29.893Z,15.57
2017-08-03T04:52:56.420Z,14.00
2017-08-03T04:55:22.999Z,12.73
2017-08-03T04:57:49.560Z,14.27
2017-08-03T05:00:16.113Z,15.73
2017-08-03T05:02:42.727Z,13.23
2017-08-03T05:05:09.292Z,13.43
2017-08-03T05:07:36.304Z,12.80
2017-08-03T05:10:02.869Z,12.67
2017-08-03T05:12:29.515Z,13.10
2017-08-03T05:14:56.084Z,13.67
2017-08-03T05:17:22.634Z,12.30
2017-08-03T05:19:49.205Z,13.90
2017-08-03T05:22:15.784Z,13.37
2017-08-03T05:24:42.396Z,15.03
2017-08-03T05:27:08.966Z,15.03
2017-08-03T05:29:35.572Z,13.40
2017-08-03T05:32:02.163Z,14.70
2017-08-03T05:34:28.746Z,13.47
2017-08-03T05:36:55.300Z,15.63
2017-08-03T05:39:21.888Z,13.40
2017-08-03T05:41:49.164Z,10.70
2017-08-03T05:44:15.743Z,9.00
2017-08-03T05:46:42.321Z,13.23
2017-08-03T05:49:08.886Z,13.03
2017-08-03T05:51:35.427Z,10.83
2017-08-03T05:54:01.992Z,13.30
2017-08-03T05:56:28.536Z,14.33
2017-08-03T05:58:55.648Z,12.77
2017-08-03T06:01:22.213Z,14.33
2017-08-03T06:03:48.865Z,12.60
2017-08-03T06:06:15.420Z,15.30
2017-08-03T06:08:42.212Z,14.80
2017-08-03T06:11:08.807Z,11.93
2017-08-03T06:13:35.474Z,12.10
2017-08-03T06:16:02.109Z,13.93
2017-08-03T06:18:29.380Z,14.00
2017-08-03T06:20:56.788Z,12.60
2017-08-03T06:23:23.349Z,15.70
2017-08-03T06:25:51.014Z,13.23
2017-08-03T06:28:17.609Z,11.67
2017-08-03T06:30:44.888Z,13.73
2017-08-03T06:33:11.223Z,12.27
2017-08-03T06:35:37.689Z,12.37
2017-08-03T06:38:04.239Z,11.93
2017-08-03T06:40:30.980Z,11.53
2017-08-03T06:42:57.540Z,12.90
2017-08-03T06:45:24.103Z,12.27
2017-08-03T06:47:50.795Z,11.10
2017-08-03T06:50:17.359Z,11.70
2017-08-03T06:52:44.700Z,10.07
2017-08-03T06:55:11.097Z,13.30
2017-08-03T06:57:37.728Z,10.63
2017-08-03T07:00:04.791Z,10.00
2017-08-03T07:02:31.197Z,9.53
2017-08-03T07:05:01.260Z,11.40
2017-08-03T07:07:27.622Z,11.33
2017-08-03T07:09:54.071Z,10.63
2017-08-03T07:12:20.461Z,10.77
2017-08-03T07:14:46.778Z,11.50
2017-08-03T07:17:13.084Z,12.17
2017-08-03T07:19:40.329Z,11.30
2017-08-03T07:22:06.684Z,10.03
2017-08-03T07:24:33.017Z,9.27
2017-08-03T07:26:59.333Z,11.23
2017-08-03T07:29:27.836Z,9.30
2017-08-03T07:31:54.195Z,12.43
2017-08-03T07:34:20.505Z,8.87
2017-08-03T07:36:46.851Z,9.93
2017-08-03T07:39:13.161Z,8.00
2017-08-03T07:41:39.494Z,10.10
2017-08-03T07:44:09.130Z,8.87
2017-08-03T07:46:35.473Z,9.00
2017-08-03T07:49:01.789Z,10.60
2017-08-03T07:51:28.184Z,8.97
2017-08-03T07:53:54.560Z,10.70
2017-08-03T07:56:20.883Z,11.77
2017-08-03T07:58:51.128Z,10.20
2017-08-03T08:01:17.444Z,9.03
2017-08-03T08:03:43.780Z,8.70
2017-08-03T08:06:10.120Z,10.70
2017-08-03T08:08:36.424Z,8.77
2017-08-03T08:11:02.731Z,9.47
2017-08-03T08:13:35.325Z,7.63
2017-08-03T08:16:01.661Z,7.90
2017-08-03T08:18:28.370Z,8.20
2017-08-03T08:20:54.960Z,7.63
2017-08-03T08:23:21.496Z,5.87
2017-08-03T08:25:48.148Z,7.90
2017-08-03T08:28:16.382Z,5.87
2017-08-03T08:30:42.940Z,7.70
2017-08-03T08:33:09.493Z,9.53
2017-08-03T08:35:36.065Z,6.67
2017-08-03T08:38:02.673Z,6.57
2017-08-03T08:40:29.229Z,5.73
2017-08-03T08:42:56.274Z,5.10
2017-08-03T08:45:23.151Z,6.27
2017-08-03T08:47:50.895Z,5.07
2017-08-03T08:50:17.362Z,5.37
2017-08-03T08:52:43.979Z,4.37
2017-08-03T08:55:10.581Z,4.90
2017-08-03T08:57:37.194Z,5.00
2017-08-03T09:00:03.851Z,6.60
2017-08-03T09:02:30.528Z,5.67
2017-08-03T09:04:59.677Z,4.40
2017-08-03T09:07:26.553Z,5.17
2017-08-03T09:09:53.148Z,5.27
2017-08-03T09:12:19.845Z,5.50
2017-08-03T09:14:47.220Z,3.80
2017-08-03T09:17:13.814Z,4.17
2017-08-03T09:19:40.384Z,5.57
2017-08-03T09:22:07.038Z,6.40
2017-08-03T09:24:34.343Z,5.97
2017-08-03T09:27:00.797Z,5.50
2017-08-03T09:29:28.164Z,3.80
2017-08-03T09:31:54.759Z,4.60
2017-08-03T09:34:21.346Z,4.67
2017-08-03T09:36:48.628Z,6.00
2017-08-03T09:39:15.306Z,6.40
2017-08-03T09:41:41.925Z,5.87
2017-08-03T09:44:08.489Z,4.27
2017-08-03T09:46:35.041Z,4.50
2017-08-03T09:49:04.327Z,3.50
2017-08-03T09:51:30.917Z,5.50
2017-08-03T09:53:57.545Z,5.50
2017-08-03T09:56:24.128Z,4.00
2017-08-03T09:58:50.701Z,3.10
2017-08-03T10:01:17.303Z,3.87
2017-08-03T10:03:47.704Z,3.87
2017-08-03T10:06:14.320Z,3.50
2017-08-03T10:08:40.871Z,3.50
2017-08-03T10:11:07.452Z,3.70
2017-08-03T10:13:34.086Z,5.53
2017-08-03T10:16:00.726Z,5.97
2017-08-03T10:18:27.335Z,3.53
2017-08-03T10:20:57.867Z,4.03
2017-08-03T10:23:24.421Z,4.67
2017-08-03T10:25:51.007Z,5.83
2017-08-03T10:28:17.545Z,3.90
2017-08-03T10:30:44.101Z,3.33
2017-08-03T10:33:10.671Z,3.97
2017-08-03T10:35:37.208Z,4.77
2017-08-03T10:38:03.793Z,3.43
2017-08-03T10:40:30.377Z,3.47
2017-08-03T10:42:57.788Z,7.80
2017-08-03T10:45:24.358Z,4.30
2017-08-03T10:47:50.989Z,4.00
2017-08-03T10:50:17.569Z,4.00
2017-08-03T10:52:44.156Z,4.60
2017-08-03T10:55:10.739Z,4.43
2017-08-03T10:57:38.637Z,6.13
2017-08-03T11:00:05.993Z,4.00
2017-08-03T11:02:32.545Z,3.20
2017-08-03T11:04:59.828Z,4.13
2017-08-03T11:07:26.491Z,3.97
2017-08-03T11:09:53.084Z,5.40
2017-08-03T11:12:20.280Z,7.53
2017-08-03T11:14:48.423Z,3.93
2017-08-03T11:17:14.728Z,4.97
2017-08-03T11:19:41.298Z,5.10
2017-08-03T11:22:07.897Z,4.60
2017-08-03T11:24:34.433Z,6.10
2017-08-03T11:27:01.728Z,3.70
2017-08-03T11:29:28.281Z,4.33
2017-08-03T11:31:54.841Z,3.80
2017-08-03T11:34:21.392Z,4.03
2017-08-03T11:36:47.900Z,4.00
2017-08-03T11:39:14.419Z,3.30
2017-08-03T11:41:40.988Z,3.40
2017-08-03T11:46:39.450Z,4.07
2017-08-03T11:49:06.512Z,3.40
2017-08-03T11:51:32.860Z,2.93
2017-08-03T11:53:59.181Z,3.90
2017-08-03T11:56:25.491Z,2.80
2017-08-03T11:58:52.015Z,2.93
2017-08-03T12:01:18.552Z,2.90
2017-08-03T12:03:52.052Z,2.43
2017-08-03T12:06:18.643Z,3.13
2017-08-03T12:08:45.224Z,5.30
2017-08-03T12:11:11.761Z,3.00
2017-08-03T12:13:38.312Z,3.87
2017-08-03T12:16:04.861Z,2.27
2017-08-03T12:18:34.202Z,2.60
2017-08-03T12:21:01.531Z,2.20
2017-08-03T12:23:28.069Z,2.30
2017-08-03T12:25:55.399Z,2.10
2017-08-03T12:28:21.976Z,2.43
2017-08-03T12:30:48.480Z,3.70
2017-08-03T12:33:16.365Z,3.10
2017-08-03T12:35:42.936Z,3.40
2017-08-03T12:38:09.488Z,2.73
2017-08-03T12:40:36.052Z,2.57
2017-08-03T12:43:02.540Z,2.47
2017-08-03T12:45:29.108Z,3.13
2017-08-03T12:48:00.222Z,2.47
2017-08-03T12:50:26.815Z,2.63
2017-08-03T12:52:53.368Z,2.83
2017-08-03T12:55:19.822Z,2.70
2017-08-03T12:57:46.333Z,3.30
2017-08-03T13:00:12.929Z,2.20
2017-08-03T13:02:44.412Z,2.50
2017-08-03T13:05:13.907Z,3.50
2017-08-03T13:07:40.437Z,2.27
2017-08-03T13:10:06.988Z,8.10
2017-08-03T13:12:33.521Z,2.27
2017-08-03T13:15:00.125Z,3.47
2017-08-03T13:17:31.873Z,3.17
2017-08-03T13:19:58.526Z,3.30
2017-08-03T13:22:25.179Z,2.07
2017-08-03T13:24:51.760Z,2.70
2017-08-03T13:27:18.367Z,3.20
2017-08-03T13:29:44.895Z,3.20
2017-08-03T13:32:11.500Z,2.07
2017-08-03T13:37:43.758Z,2.50
2017-08-03T13:40:10.085Z,1.80
2017-08-03T13:42:36.493Z,2.30
2017-08-03T13:45:02.836Z,1.70
2017-08-03T13:47:29.228Z,3.33
2017-08-03T13:50:00.169Z,1.80
2017-08-03T13:52:26.619Z,2.37
2017-08-03T13:54:53.726Z,3.30
2017-08-03T13:57:20.060Z,2.60
2017-08-03T13:59:47.114Z,1.80
2017-08-03T14:02:13.436Z,2.30
2017-08-03T14:04:39.770Z,1.90
2017-08-03T14:07:06.099Z,1.83
2017-08-03T14:09:35.581Z,2.30
2017-08-03T14:12:01.933Z,1.90
2017-08-03T14:14:28.270Z,1.53
2017-08-03T14:16:54.681Z,1.90
2017-08-03T14:19:21.074Z,2.17
2017-08-03T14:21:47.388Z,2.07
2017-08-03T14:24:13.734Z,2.13
2017-08-03T14:26:43.083Z,1.90
2017-08-03T14:29:10.149Z,1.70
2017-08-03T14:31:36.508Z,2.00
2017-08-03T14:34:02.827Z,2.60
2017-08-03T14:36:29.152Z,4.73
2017-08-03T14:38:55.483Z,1.70
2017-08-03T14:41:21.918Z,2.27
2017-08-03T14:43:48.229Z,2.10
2017-08-03T14:46:18.067Z,3.07
2017-08-03T14:48:44.424Z,2.27
2017-08-03T14:51:10.767Z,3.30
2017-08-03T14:53:37.103Z,1.83
2017-08-03T14:56:03.532Z,3.50
2017-08-03T14:58:30.553Z,1.80
2017-08-03T15:00:56.888Z,6.17
2017-08-03T15:03:23.197Z,1.87
2017-08-03T15:05:50.308Z,2.03
2017-08-03T15:08:16.728Z,2.90
2017-08-03T15:10:43.042Z,3.13
2017-08-03T15:13:09.355Z,2.00
2017-08-03T15:15:35.673Z,2.20
2017-08-03T15:18:01.993Z,2.43
2017-08-03T15:20:28.328Z,1.90
2017-08-03T15:22:54.656Z,3.67
2017-08-03T15:25:20.955Z,2.00
2017-08-03T15:27:47.257Z,2.10
2017-08-03T15:30:13.552Z,4.73
2017-08-03T15:32:39.899Z,2.33
2017-08-03T15:35:06.349Z,2.20
2017-08-03T15:37:32.875Z,2.80
2017-08-03T15:39:59.192Z,2.20
2017-08-03T15:42:25.528Z,4.33
2017-08-03T15:44:51.884Z,2.50
2017-08-03T15:47:18.213Z,2.60
2017-08-03T15:49:44.566Z,2.20
2017-08-03T15:52:10.878Z,4.03
2017-08-03T15:54:37.211Z,2.67
2017-08-03T15:57:03.559Z,4.97
2017-08-03T15:59:30.352Z,3.00
2017-08-03T16:01:56.674Z,8.70
2017-08-03T16:04:23.803Z,3.17
2017-08-03T16:06:50.282Z,4.67
2017-08-03T16:09:16.652Z,3.40
2017-08-03T16:11:42.992Z,4.43
2017-08-03T16:14:09.434Z,4.73
2017-08-03T16:16:35.958Z,3.93
2017-08-03T16:19:02.453Z,4.10
2017-08-03T16:21:28.933Z,4.53
2017-08-03T16:23:55.793Z,2.83
2017-08-03T16:26:22.128Z,3.40
2017-08-03T16:28:49.255Z,8.53
2017-08-03T16:31:15.916Z,4.17
2017-08-03T16:33:42.306Z,5.70
2017-08-03T16:36:08.837Z,2.97
2017-08-03T16:38:35.188Z,4.20
2017-08-03T16:41:02.329Z,5.93
2017-08-03T16:43:28.636Z,4.20
2017-08-03T16:45:56.212Z,9.07
2017-08-03T16:48:22.545Z,7.63
2017-08-03T16:50:48.905Z,3.53
2017-08-03T16:53:15.228Z,6.90
2017-08-03T16:55:41.548Z,2.93
2017-08-03T16:58:08.027Z,5.37
2017-08-03T17:00:34.714Z,6.80
2017-08-03T17:03:01.295Z,4.87
2017-08-03T17:05:27.862Z,6.20
2017-08-03T17:07:54.408Z,3.33
2017-08-03T17:10:20.954Z,4.63
2017-08-03T17:12:48.608Z,2.03
2017-08-03T17:15:15.152Z,3.20
2017-08-03T17:17:41.692Z,4.60
2017-08-03T17:20:08.222Z,3.90
2017-08-03T17:22:35.511Z,4.07
2017-08-03T17:25:02.044Z,2.40
2017-08-03T17:27:31.029Z,4.33
2017-08-03T17:29:57.669Z,2.60
2017-08-03T17:32:24.218Z,3.50
2017-08-03T17:34:50.817Z,2.33
2017-08-03T17:37:18.112Z,3.30
2017-08-03T17:39:45.593Z,3.03
2017-08-03T17:42:12.138Z,2.30
2017-08-03T17:44:38.678Z,6.90
2017-08-03T17:47:05.189Z,4.80
2017-08-03T17:49:32.450Z,6.83
2017-08-03T17:51:59.004Z,5.47
2017-08-03T17:54:25.560Z,7.60
2017-08-03T17:56:52.208Z,7.13
2017-08-03T17:59:18.704Z,6.90
2017-08-03T18:01:47.148Z,5.07
2017-08-03T18:04:13.780Z,3.57
2017-08-03T18:06:40.392Z,5.37
2017-08-03T18:09:07.187Z,5.60
2017-08-03T18:11:33.761Z,5.67
2017-08-03T18:14:00.177Z,3.73
2017-08-03T18:16:27.515Z,3.47
2017-08-03T18:18:55.550Z,3.57
2017-08-03T18:21:22.942Z,4.23
2017-08-03T18:23:49.493Z,5.73
2017-08-03T18:26:16.044Z,4.47
2017-08-03T18:28:42.593Z,5.63
2017-08-03T18:31:10.713Z,7.07
2017-08-03T18:33:37.462Z,5.03
2017-08-03T18:36:04.097Z,4.93
2017-08-03T18:38:30.665Z,1.90
2017-08-03T18:40:57.223Z,3.10
2017-08-03T18:43:23.829Z,6.90
2017-08-03T18:45:55.520Z,7.23
2017-08-03T18:48:28.586Z,10.80
2017-08-03T18:50:54.924Z,4.90
2017-08-03T18:53:21.301Z,5.90
2017-08-03T18:55:48.389Z,8.03
2017-08-03T18:58:14.787Z,4.50
2017-08-03T19:00:41.180Z,3.60
2017-08-03T19:03:07.582Z,5.70
2017-08-03T19:05:37.853Z,4.03
2017-08-03T19:08:04.454Z,3.23
2017-08-03T19:10:31.017Z,3.83
2017-08-03T19:12:57.591Z,8.57
2017-08-03T19:15:24.140Z,4.53
2017-08-03T19:17:50.775Z,4.70
2017-08-03T19:20:17.444Z,5.33
2017-08-03T19:22:47.882Z,5.73
2017-08-03T19:25:14.418Z,6.67
2017-08-03T19:27:41.730Z,4.40
2017-08-03T19:30:08.055Z,3.93
2017-08-03T19:32:34.401Z,5.13
2017-08-03T19:35:00.775Z,2.20
2017-08-03T19:37:34.397Z,7.67
2017-08-03T19:40:00.936Z,4.40
2017-08-03T19:42:27.679Z,6.90
2017-08-03T19:44:54.040Z,4.37
2017-08-03T19:47:20.583Z,5.60
2017-08-03T19:49:47.112Z,6.70
2017-08-03T19:52:13.665Z,4.83
2017-08-03T19:54:40.210Z,4.37
2017-08-03T19:57:06.792Z,5.77
2017-08-03T19:59:33.375Z,2.20
2017-08-03T20:01:59.928Z,6.60
2017-08-03T20:04:26.461Z,2.70
2017-08-03T20:07:05.128Z,5.47
2017-08-03T20:09:35.630Z,4.47
2017-08-03T20:12:02.224Z,8.80
2017-08-03T20:14:28.808Z,6.90
2017-08-03T20:16:55.416Z,6.60
2017-08-03T20:19:22.718Z,3.70
2017-08-03T20:21:51.530Z,7.00
2017-08-03T20:24:19.002Z,3.90
2017-08-03T20:26:45.644Z,5.90
2017-08-03T20:29:12.230Z,5.20
2017-08-03T20:31:39.617Z,5.07
2017-08-03T20:34:06.389Z,4.80
2017-08-03T20:36:33.020Z,6.23
2017-08-03T20:38:59.618Z,6.67
2017-08-03T20:41:26.164Z,6.70
2017-08-03T20:43:53.902Z,3.93
2017-08-03T20:46:20.646Z,5.47
2017-08-03T20:48:47.348Z,4.23
2017-08-03T20:51:13.924Z,3.43
2017-08-03T20:53:40.495Z,5.50
2017-08-03T20:56:07.045Z,7.40
2017-08-03T20:58:33.681Z,5.70
2017-08-03T21:01:01.008Z,7.27
2017-08-03T21:03:27.688Z,6.40
2017-08-03T21:05:54.312Z,8.23
2017-08-03T21:08:20.888Z,6.53
2017-08-03T21:10:47.444Z,7.47
2017-08-03T21:13:14.008Z,7.93
2017-08-03T21:15:40.531Z,8.00
2017-08-03T21:18:07.057Z,4.70
2017-08-03T21:20:33.678Z,6.00
2017-08-03T21:23:00.173Z,7.33
2017-08-03T21:25:26.763Z,5.23
2017-08-03T21:27:53.447Z,4.80
2017-08-03T21:30:20.133Z,3.70
2017-08-03T21:32:46.771Z,4.83
2017-08-03T21:35:13.337Z,9.40
2017-08-03T21:37:40.189Z,6.63
2017-08-03T21:40:06.779Z,6.23
2017-08-03T21:42:33.497Z,3.87
2017-08-03T21:45:00.894Z,6.67
2017-08-03T21:47:27.552Z,6.00
2017-08-03T21:49:54.238Z,5.00
2017-08-03T21:52:21.549Z,2.33
2017-08-03T21:54:48.559Z,5.13
2017-08-03T21:57:15.170Z,3.93
2017-08-03T21:59:41.733Z,3.70
2017-08-03T22:02:08.434Z,5.90
2017-08-03T22:04:34.999Z,7.70
2017-08-03T22:07:01.717Z,5.53
2017-08-03T22:09:28.613Z,8.63
2017-08-03T22:11:55.284Z,7.50
2017-08-03T22:14:21.919Z,6.70
2017-08-03T22:16:49.037Z,4.00
2017-08-03T22:19:15.618Z,6.40
2017-08-03T22:21:42.372Z,6.27
2017-08-03T22:24:09.200Z,9.50
2017-08-03T22:26:35.832Z,5.73
2017-08-03T22:29:02.602Z,4.10
2017-08-03T22:31:29.413Z,5.33
2017-08-03T22:33:56.015Z,5.63
2017-08-03T22:36:22.672Z,4.53
2017-08-03T22:38:49.273Z,5.87
2017-08-03T22:41:15.835Z,6.23
2017-08-03T22:43:42.417Z,8.07
2017-08-03T22:46:08.988Z,7.70
2017-08-03T22:48:35.553Z,3.70
2017-08-03T22:51:02.119Z,3.03
2017-08-03T22:53:28.730Z,3.80
2017-08-03T22:55:55.292Z,5.50
2017-08-03T22:58:22.400Z,4.53
2017-08-03T23:00:48.974Z,4.37
2017-08-03T23:03:15.481Z,4.80
2017-08-03T23:05:42.088Z,4.43
2017-08-03T23:08:08.842Z,3.60
2017-08-03T23:10:35.442Z,4.07
2017-08-03T23:13:02.942Z,4.87
2017-08-03T23:15:29.698Z,10.70
2017-08-03T23:17:56.341Z,6.90
2017-08-03T23:20:23.412Z,12.03
2017-08-03T23:22:49.977Z,6.50
2017-08-03T23:25:16.554Z,5.37
2017-08-03T23:27:43.318Z,6.90
2017-08-03T23:30:09.926Z,5.60
2017-08-03T23:32:37.053Z,6.40
2017-08-03T23:35:03.625Z,10.97
2017-08-03T23:37:30.929Z,7.90
2017-08-03T23:39:57.461Z,5.40
2017-08-03T23:42:24.077Z,6.70
2017-08-03T23:44:50.647Z,3.30
2017-08-03T23:47:17.968Z,5.53
2017-08-03T23:49:44.603Z,3.10
2017-08-03T23:52:11.264Z,5.30
2017-08-03T23:54:37.805Z,4.60
2017-08-03T23:57:04.377Z,7.40
2017-08-03T23:59:49.112Z,4.90
